Aérodrome :







RETROUVEZ-NOUS SUR...

 
LOGIN :

S'inscrire | Disclaimer

   EN    FR    IT 

 









Légende :    VFR   VFR Marginal   IFR   IFR Intensif   IFR Très Intensif
Visi : 
Plafond : 
>= 8 km
>= 3000ft
5 à 8 km
1000 à 3000 ft
1500m à 5 km
500 à 1000 ft
800 à 1500m
200 à 500 ft
< 800m
< 200 ft
Symboles :   Orages  Brouillard  Fortes neiges  Fortes précipitations  Vent > 20 kt






- Altitude de l'aérodrome : 16 ft
- Code IATA : FDF


TFFF - Aime Cesaire

DERNIER METAR :
  • 221500Z AUTO 08007KT 050V110 9999 -RA FEW008 BKN026 BKN033 25/24 Q1014

METARs EXPIRÉS :
  • 221430Z AUTO 11010KT 5000 -RA BR SCT010 BKN020 BKN029 25/24 Q1014
  • 221400Z AUTO 08006KT 050V110 6000 -RA SCT009 BKN015 BKN021 25/24 Q1014
  • 221330Z AUTO 10008KT 9999 -RA FEW010 SCT014 BKN023 24/23 Q1014
  • 221300Z AUTO 10010KT 8000 -RA FEW009 SCT023 BKN029 24/23 Q1014
  • 221230Z AUTO 11011KT 2700 -RA BR BKN009/// BKN014/// BKN019/// ///TCU 23/22 Q1014

TAF TAF TFFF
Valide du 21 à 18h jusqu'au 22 à 18h UTC


211700Z 2118/2218 09010KT 9999 SCT025 BKN050
PROB40
TEMPO 2205/2213 4000 SHRA SCT015 BKN018TCU



MET'MAP, la Météo Aéronautique d'un coup d'oeil ! - Copyright ORBIFLY Décembre 2007 - Disclaimer

ORBIFLY MET'MAP TEAM :

Programmation & Développement : Alexandra Zaïnal
Sur une idée originale de : Baudouin d'Aumeries
Assistance à la programmation : Marc-Olivier Méhu
Soutien technique & logistique : Manuel Goepfert

Contact : metmap@orbifly.com




SOURCES & CREDITS :

   NOAA